sensor_id;sensor_type;location;lat;lon;timestamp;pressure;altitude;pressure_sealevel;temperature;humidity
77897;BME280;67092;64.282;21.056;2023-02-28T00:00:06;101305.24;;;20.75;21.13
77897;BME280;67092;64.282;21.056;2023-02-28T00:02:30;101315.87;;;20.18;21.75
77897;BME280;67092;64.282;21.056;2023-02-28T00:04:56;101314.31;;;20.92;21.21
77897;BME280;67092;64.282;21.056;2023-02-28T00:07:22;101314.66;;;21.09;20.82
77897;BME280;67092;64.282;21.056;2023-02-28T00:09:47;101311.08;;;20.92;20.90
77897;BME280;67092;64.282;21.056;2023-02-28T00:12:13;101309.37;;;20.77;21.07
77897;BME280;67092;64.282;21.056;2023-02-28T00:14:38;101324.38;;;20.70;21.14
77897;BME280;67092;64.282;21.056;2023-02-28T00:17:04;101339.74;;;20.82;21.04
77897;BME280;67092;64.282;21.056;2023-02-28T00:19:30;101339.96;;;20.78;21.04
77897;BME280;67092;64.282;21.056;2023-02-28T00:21:55;101341.48;;;21.12;20.77
77897;BME280;67092;64.282;21.056;2023-02-28T00:24:21;101346.78;;;21.24;20.86
77897;BME280;67092;64.282;21.056;2023-02-28T00:26:47;101354.02;;;21.15;20.76
77897;BME280;67092;64.282;21.056;2023-02-28T00:29:12;101344.94;;;20.88;20.94
77897;BME280;67092;64.282;21.056;2023-02-28T00:31:38;101345.99;;;20.93;20.88
77897;BME280;67092;64.282;21.056;2023-02-28T00:34:03;101350.91;;;20.96;20.89
77897;BME280;67092;64.282;21.056;2023-02-28T00:36:29;101351.11;;;21.04;20.83
77897;BME280;67092;64.282;21.056;2023-02-28T00:38:55;101355.99;;;21.03;20.83
77897;BME280;67092;64.282;21.056;2023-02-28T00:41:20;101356.82;;;19.92;21.71
77897;BME280;67092;64.282;21.056;2023-02-28T00:43:46;101353.32;;;20.46;21.53
77897;BME280;67092;64.282;21.056;2023-02-28T00:46:12;101357.34;;;20.71;21.10
77897;BME280;67092;64.282;21.056;2023-02-28T00:48:37;101355.86;;;20.79;20.95
77897;BME280;67092;64.282;21.056;2023-02-28T00:51:03;101361.69;;;20.90;20.88
77897;BME280;67092;64.282;21.056;2023-02-28T00:53:29;101366.18;;;21.00;20.98
77897;BME280;67092;64.282;21.056;2023-02-28T00:55:54;101366.81;;;20.82;20.95
77897;BME280;67092;64.282;21.056;2023-02-28T00:58:20;101363.13;;;20.71;21.26
77897;BME280;67092;64.282;21.056;2023-02-28T01:00:46;101367.74;;;20.84;20.91
77897;BME280;67092;64.282;21.056;2023-02-28T01:03:11;101367.27;;;21.02;21.01
77897;BME280;67092;64.282;21.056;2023-02-28T01:05:37;101362.78;;;19.56;21.17
77897;BME280;67092;64.282;21.056;2023-02-28T01:08:03;101362.27;;;20.21;21.41
77897;BME280;67092;64.282;21.056;2023-02-28T01:10:28;101367.39;;;20.79;20.93
77897;BME280;67092;64.282;21.056;2023-02-28T01:12:54;101376.17;;;20.50;21.26
77897;BME280;67092;64.282;21.056;2023-02-28T01:15:19;101379.67;;;19.83;21.67
77897;BME280;67092;64.282;21.056;2023-02-28T01:17:45;101381.59;;;21.01;21.09
77897;BME280;67092;64.282;21.056;2023-02-28T01:20:11;101379.36;;;20.24;21.41
77897;BME280;67092;64.282;21.056;2023-02-28T01:22:36;101380.66;;;20.76;21.05
77897;BME280;67092;64.282;21.056;2023-02-28T01:25:02;101395.88;;;20.86;20.94
77897;BME280;67092;64.282;21.056;2023-02-28T01:27:27;101396.12;;;21.01;20.82
77897;BME280;67092;64.282;21.056;2023-02-28T01:29:53;101400.59;;;20.76;21.07
77897;BME280;67092;64.282;21.056;2023-02-28T01:32:19;101413.91;;;20.70;21.07
77897;BME280;67092;64.282;21.056;2023-02-28T01:34:44;101415.33;;;20.57;21.17
77897;BME280;67092;64.282;21.056;2023-02-28T01:37:10;101416.77;;;20.78;21.21
77897;BME280;67092;64.282;21.056;2023-02-28T01:39:35;101417.27;;;20.92;20.92
77897;BME280;67092;64.282;21.056;2023-02-28T01:42:01;101415.51;;;21.15;20.76
77897;BME280;67092;64.282;21.056;2023-02-28T01:46:52;101421.76;;;20.94;21.12
77897;BME280;67092;64.282;21.056;2023-02-28T01:49:18;101421.82;;;20.20;21.46
77897;BME280;67092;64.282;21.056;2023-02-28T01:51:46;101427.23;;;20.19;21.54
77897;BME280;67092;64.282;21.056;2023-02-28T01:54:14;101421.36;;;20.39;21.35
77897;BME280;67092;64.282;21.056;2023-02-28T01:56:36;101418.29;;;20.68;21.01
77897;BME280;67092;64.282;21.056;2023-02-28T01:59:01;101418.83;;;21.07;20.68
77897;BME280;67092;64.282;21.056;2023-02-28T02:01:27;101429.49;;;21.01;20.80
77897;BME280;67092;64.282;21.056;2023-02-28T02:03:54;101429.42;;;20.22;21.43
77897;BME280;67092;64.282;21.056;2023-02-28T02:06:17;101429.85;;;21.01;20.90
77897;BME280;67092;64.282;21.056;2023-02-28T02:08:43;101444.23;;;20.70;20.94
77897;BME280;67092;64.282;21.056;2023-02-28T02:11:10;101449.38;;;20.03;21.50
77897;BME280;67092;64.282;21.056;2023-02-28T02:13:50;101448.56;;;19.62;21.99
77897;BME280;67092;64.282;21.056;2023-02-28T02:16:07;101461.70;;;19.98;21.50
77897;BME280;67092;64.282;21.056;2023-02-28T02:18:31;101461.68;;;20.61;20.84
77897;BME280;67092;64.282;21.056;2023-02-28T02:21:03;101466.42;;;20.49;21.04
77897;BME280;67092;64.282;21.056;2023-02-28T02:23:30;101471.42;;;20.70;20.90
77897;BME280;67092;64.282;21.056;2023-02-28T02:25:45;101479.62;;;20.33;21.12
77897;BME280;67092;64.282;21.056;2023-02-28T02:28:22;101477.00;;;20.47;21.07
77897;BME280;67092;64.282;21.056;2023-02-28T02:30:43;101467.24;;;20.84;20.77
77897;BME280;67092;64.282;21.056;2023-02-28T02:33:10;101472.17;;;20.87;20.89
77897;BME280;67092;64.282;21.056;2023-02-28T02:35:28;101477.50;;;20.63;20.94
77897;BME280;67092;64.282;21.056;2023-02-28T02:37:52;101470.68;;;21.07;20.78
77897;BME280;67092;64.282;21.056;2023-02-28T02:40:18;101474.82;;;20.94;20.66
77897;BME280;67092;64.282;21.056;2023-02-28T02:42:49;101478.86;;;20.85;20.79
77897;BME280;67092;64.282;21.056;2023-02-28T02:45:10;101482.46;;;19.96;21.64
77897;BME280;67092;64.282;21.056;2023-02-28T02:47:34;101471.63;;;20.21;21.33
77897;BME280;67092;64.282;21.056;2023-02-28T02:50:02;101475.73;;;20.69;21.11
77897;BME280;67092;64.282;21.056;2023-02-28T02:52:29;101483.21;;;20.24;21.22
77897;BME280;67092;64.282;21.056;2023-02-28T02:54:53;101488.25;;;20.52;21.06
77897;BME280;67092;64.282;21.056;2023-02-28T02:57:21;101492.78;;;20.96;20.91
77897;BME280;67092;64.282;21.056;2023-02-28T02:59:42;101483.62;;;20.98;20.86
77897;BME280;67092;64.282;21.056;2023-02-28T03:02:10;101483.73;;;20.94;20.64
77897;BME280;67092;64.282;21.056;2023-02-28T03:04:38;101489.44;;;20.84;20.69
77897;BME280;67092;64.282;21.056;2023-02-28T03:06:58;101500.26;;;20.70;20.83
77897;BME280;67092;64.282;21.056;2023-02-28T03:09:25;101504.29;;;20.78;20.95
77897;BME280;67092;64.282;21.056;2023-02-28T03:11:51;101504.72;;;20.84;20.75
77897;BME280;67092;64.282;21.056;2023-02-28T03:14:26;101513.05;;;20.18;21.17
77897;BME280;67092;64.282;21.056;2023-02-28T03:16:56;101513.18;;;20.38;21.04
77897;BME280;67092;64.282;21.056;2023-02-28T03:19:21;101512.15;;;20.44;21.06
77897;BME280;67092;64.282;21.056;2023-02-28T03:21:36;101506.51;;;19.79;21.22
77897;BME280;67092;64.282;21.056;2023-02-28T03:24:03;101502.15;;;20.14;21.42
77897;BME280;67092;64.282;21.056;2023-02-28T03:26:25;101503.98;;;20.68;20.97
77897;BME280;67092;64.282;21.056;2023-02-28T03:28:55;101491.81;;;20.52;20.88
77897;BME280;67092;64.282;21.056;2023-02-28T03:31:17;101494.30;;;20.67;21.01
77897;BME280;67092;64.282;21.056;2023-02-28T03:33:44;101490.70;;;20.91;20.75
77897;BME280;67092;64.282;21.056;2023-02-28T03:36:10;101482.75;;;20.82;20.88
77897;BME280;67092;64.282;21.056;2023-02-28T03:38:35;101477.38;;;20.57;20.86
77897;BME280;67092;64.282;21.056;2023-02-28T03:41:01;101470.08;;;20.69;20.77
77897;BME280;67092;64.282;21.056;2023-02-28T03:43:25;101473.24;;;20.27;20.91
77897;BME280;67092;64.282;21.056;2023-02-28T03:45:50;101479.02;;;20.58;21.03
77897;BME280;67092;64.282;21.056;2023-02-28T03:48:17;101495.36;;;20.38;21.12
77897;BME280;67092;64.282;21.056;2023-02-28T03:50:41;101507.05;;;20.01;21.32
77897;BME280;67092;64.282;21.056;2023-02-28T03:53:08;101520.32;;;20.25;21.23
77897;BME280;67092;64.282;21.056;2023-02-28T03:55:34;101531.73;;;20.41;21.04
77897;BME280;67092;64.282;21.056;2023-02-28T03:58:01;101531.63;;;20.12;21.48
77897;BME280;67092;64.282;21.056;2023-02-28T04:00:27;101530.82;;;19.88;21.42
77897;BME280;67092;64.282;21.056;2023-02-28T04:02:48;101529.15;;;19.73;21.84
77897;BME280;67092;64.282;21.056;2023-02-28T04:05:13;101543.20;;;19.78;21.58
77897;BME280;67092;64.282;21.056;2023-02-28T04:07:39;101557.79;;;20.30;21.37
77897;BME280;67092;64.282;21.056;2023-02-28T04:10:05;101563.57;;;19.95;21.45
77897;BME280;67092;64.282;21.056;2023-02-28T04:12:30;101562.42;;;20.30;20.96
77897;BME280;67092;64.282;21.056;2023-02-28T04:14:55;101561.07;;;20.48;21.21
77897;BME280;67092;64.282;21.056;2023-02-28T04:17:21;101554.05;;;19.50;21.69
77897;BME280;67092;64.282;21.056;2023-02-28T04:19:47;101557.58;;;20.51;20.98
77897;BME280;67092;64.282;21.056;2023-02-28T04:22:12;101556.20;;;20.85;20.81
77897;BME280;67092;64.282;21.056;2023-02-28T04:24:38;101559.30;;;19.94;21.29
77897;BME280;67092;64.282;21.056;2023-02-28T04:27:04;101550.42;;;19.56;21.70
77897;BME280;67092;64.282;21.056;2023-02-28T04:29:31;101561.90;;;20.22;21.40
77897;BME280;67092;64.282;21.056;2023-02-28T04:31:56;101566.82;;;19.62;21.60
77897;BME280;67092;64.282;21.056;2023-02-28T04:34:21;101566.60;;;20.26;21.22
77897;BME280;67092;64.282;21.056;2023-02-28T04:36:46;101565.85;;;20.54;21.12
77897;BME280;67092;64.282;21.056;2023-02-28T04:39:12;101567.29;;;20.31;21.10
77897;BME280;67092;64.282;21.056;2023-02-28T04:41:37;101560.39;;;19.93;21.29
77897;BME280;67092;64.282;21.056;2023-02-28T04:44:03;101558.18;;;19.81;21.47
77897;BME280;67092;64.282;21.056;2023-02-28T04:46:29;101570.49;;;20.36;21.11
77897;BME280;67092;64.282;21.056;2023-02-28T04:48:54;101572.42;;;20.00;21.35
77897;BME280;67092;64.282;21.056;2023-02-28T04:51:20;101581.14;;;20.68;20.86
77897;BME280;67092;64.282;21.056;2023-02-28T04:53:46;101587.31;;;20.82;20.77
77897;BME280;67092;64.282;21.056;2023-02-28T04:56:13;101583.22;;;21.09;20.72
77897;BME280;67092;64.282;21.056;2023-02-28T04:58:37;101575.96;;;20.54;21.12
77897;BME280;67092;64.282;21.056;2023-02-28T05:01:04;101582.33;;;20.59;21.13
77897;BME280;67092;64.282;21.056;2023-02-28T05:03:28;101592.92;;;19.88;21.66
77897;BME280;67092;64.282;21.056;2023-02-28T05:05:54;101597.72;;;20.30;21.38
77897;BME280;67092;64.282;21.056;2023-02-28T05:08:19;101590.16;;;20.36;21.20
77897;BME280;67092;64.282;21.056;2023-02-28T05:10:45;101588.58;;;20.48;21.05
77897;BME280;67092;64.282;21.056;2023-02-28T05:13:11;101588.88;;;20.30;21.25
77897;BME280;67092;64.282;21.056;2023-02-28T05:15:36;101592.51;;;20.42;21.36
77897;BME280;67092;64.282;21.056;2023-02-28T05:18:02;101600.48;;;20.66;21.06
77897;BME280;67092;64.282;21.056;2023-02-28T05:20:27;101605.05;;;21.18;20.80
77897;BME280;67092;64.282;21.056;2023-02-28T05:22:53;101599.97;;;20.18;21.45
77897;BME280;67092;64.282;21.056;2023-02-28T05:25:21;101596.18;;;19.94;21.61
77897;BME280;67092;64.282;21.056;2023-02-28T05:27:44;101594.98;;;20.09;21.46
77897;BME280;67092;64.282;21.056;2023-02-28T05:30:11;101603.06;;;20.37;21.52
77897;BME280;67092;64.282;21.056;2023-02-28T05:32:36;101597.28;;;20.58;21.09
77897;BME280;67092;64.282;21.056;2023-02-28T05:35:01;101605.79;;;20.78;20.96
77897;BME280;67092;64.282;21.056;2023-02-28T05:37:27;101607.51;;;20.23;21.71
77897;BME280;67092;64.282;21.056;2023-02-28T05:39:52;101611.44;;;20.77;21.09
77897;BME280;67092;64.282;21.056;2023-02-28T05:42:18;101607.15;;;20.45;21.19
77897;BME280;67092;64.282;21.056;2023-02-28T05:44:44;101609.08;;;20.72;21.05
77897;BME280;67092;64.282;21.056;2023-02-28T05:47:10;101612.95;;;20.38;21.30
77897;BME280;67092;64.282;21.056;2023-02-28T05:49:35;101612.25;;;20.15;21.55
77897;BME280;67092;64.282;21.056;2023-02-28T05:52:00;101626.36;;;20.33;21.37
77897;BME280;67092;64.282;21.056;2023-02-28T05:54:26;101638.54;;;20.25;21.54
77897;BME280;67092;64.282;21.056;2023-02-28T05:56:52;101647.38;;;20.84;21.20
77897;BME280;67092;64.282;21.056;2023-02-28T05:59:18;101649.17;;;20.37;21.59
77897;BME280;67092;64.282;21.056;2023-02-28T06:01:44;101649.81;;;20.72;21.20
77897;BME280;67092;64.282;21.056;2023-02-28T06:04:11;101652.68;;;20.41;21.61
77897;BME280;67092;64.282;21.056;2023-02-28T06:06:34;101655.92;;;20.13;21.53
77897;BME280;67092;64.282;21.056;2023-02-28T06:09:00;101654.44;;;20.67;21.23
77897;BME280;67092;64.282;21.056;2023-02-28T06:11:26;101651.55;;;20.61;21.36
77897;BME280;67092;64.282;21.056;2023-02-28T06:13:53;101658.53;;;19.83;21.99
77897;BME280;67092;64.282;21.056;2023-02-28T06:16:17;101667.02;;;20.41;21.70
77897;BME280;67092;64.282;21.056;2023-02-28T06:18:42;101671.00;;;21.03;21.37
77897;BME280;67092;64.282;21.056;2023-02-28T06:21:08;101671.16;;;20.64;21.61
77897;BME280;67092;64.282;21.056;2023-02-28T06:23:33;101676.17;;;20.44;21.75
77897;BME280;67092;64.282;21.056;2023-02-28T06:26:00;101680.77;;;21.00;21.38
77897;BME280;67092;64.282;21.056;2023-02-28T06:28:25;101689.74;;;20.92;21.06
77897;BME280;67092;64.282;21.056;2023-02-28T06:30:50;101692.89;;;20.26;21.61
77897;BME280;67092;64.282;21.056;2023-02-28T06:33:15;101697.13;;;19.91;21.92
77897;BME280;67092;64.282;21.056;2023-02-28T06:35:43;101703.14;;;20.34;21.74
77897;BME280;67092;64.282;21.056;2023-02-28T06:38:07;101706.96;;;20.16;21.90
77897;BME280;67092;64.282;21.056;2023-02-28T06:40:32;101712.91;;;20.25;21.61
77897;BME280;67092;64.282;21.056;2023-02-28T06:42:58;101717.77;;;20.36;21.68
77897;BME280;67092;64.282;21.056;2023-02-28T06:45:24;101714.85;;;19.97;21.71
77897;BME280;67092;64.282;21.056;2023-02-28T06:47:49;101714.07;;;20.78;21.35
77897;BME280;67092;64.282;21.056;2023-02-28T06:50:15;101713.60;;;20.24;21.47
77897;BME280;67092;64.282;21.056;2023-02-28T06:52:40;101720.83;;;20.10;21.67
77897;BME280;67092;64.282;21.056;2023-02-28T06:55:07;101721.65;;;19.99;21.77
77897;BME280;67092;64.282;21.056;2023-02-28T06:57:33;101728.23;;;20.18;21.42
77897;BME280;67092;64.282;21.056;2023-02-28T06:59:58;101727.32;;;19.89;21.63
77897;BME280;67092;64.282;21.056;2023-02-28T07:02:23;101733.31;;;20.18;21.40
77897;BME280;67092;64.282;21.056;2023-02-28T07:04:49;101740.14;;;20.19;21.34
77897;BME280;67092;64.282;21.056;2023-02-28T07:07:14;101737.31;;;20.18;21.33
77897;BME280;67092;64.282;21.056;2023-02-28T07:09:40;101739.94;;;20.02;21.46
77897;BME280;67092;64.282;21.056;2023-02-28T07:12:06;101735.42;;;19.97;21.35
77897;BME280;67092;64.282;21.056;2023-02-28T07:14:31;101732.03;;;20.35;21.17
77897;BME280;67092;64.282;21.056;2023-02-28T07:16:57;101737.36;;;20.22;21.35
77897;BME280;67092;64.282;21.056;2023-02-28T07:19:22;101732.13;;;20.32;21.16
77897;BME280;67092;64.282;21.056;2023-02-28T07:21:48;101750.14;;;19.85;21.42
77897;BME280;67092;64.282;21.056;2023-02-28T07:24:14;101748.09;;;20.06;21.12
77897;BME280;67092;64.282;21.056;2023-02-28T07:26:39;101740.39;;;20.05;21.19
77897;BME280;67092;64.282;21.056;2023-02-28T07:29:05;101751.47;;;20.68;20.71
77897;BME280;67092;64.282;21.056;2023-02-28T07:31:31;101754.47;;;20.30;20.94
77897;BME280;67092;64.282;21.056;2023-02-28T07:33:56;101759.17;;;19.88;21.21
77897;BME280;67092;64.282;21.056;2023-02-28T07:36:22;101750.59;;;20.74;20.80
77897;BME280;67092;64.282;21.056;2023-02-28T07:38:48;101748.61;;;20.59;20.58
77897;BME280;67092;64.282;21.056;2023-02-28T07:41:14;101751.25;;;20.17;20.90
77897;BME280;67092;64.282;21.056;2023-02-28T07:43:39;101741.02;;;19.93;21.09
77897;BME280;67092;64.282;21.056;2023-02-28T07:46:06;101751.72;;;19.80;21.21
77897;BME280;67092;64.282;21.056;2023-02-28T07:48:30;101767.55;;;19.99;20.93
77897;BME280;67092;64.282;21.056;2023-02-28T07:50:56;101773.87;;;19.63;21.31
77897;BME280;67092;64.282;21.056;2023-02-28T07:53:21;101766.12;;;19.78;21.19
77897;BME280;67092;64.282;21.056;2023-02-28T07:55:47;101766.24;;;19.63;21.15
77897;BME280;67092;64.282;21.056;2023-02-28T07:58:12;101768.68;;;20.18;20.76
77897;BME280;67092;64.282;21.056;2023-02-28T08:00:38;101760.97;;;19.67;21.14
77897;BME280;67092;64.282;21.056;2023-02-28T08:03:04;101771.99;;;20.33;20.87
77897;BME280;67092;64.282;21.056;2023-02-28T08:05:29;101774.12;;;20.46;20.76
77897;BME280;67092;64.282;21.056;2023-02-28T08:07:55;101763.08;;;19.94;21.03
77897;BME280;67092;64.282;21.056;2023-02-28T08:10:21;101748.83;;;20.14;20.93
77897;BME280;67092;64.282;21.056;2023-02-28T08:12:46;101754.08;;;20.18;20.85
77897;BME280;67092;64.282;21.056;2023-02-28T08:15:12;101752.00;;;20.31;20.60
77897;BME280;67092;64.282;21.056;2023-02-28T08:17:38;101760.68;;;20.17;20.59
77897;BME280;67092;64.282;21.056;2023-02-28T08:20:04;101759.56;;;20.37;20.50
77897;BME280;67092;64.282;21.056;2023-02-28T08:22:29;101765.61;;;20.51;20.39
77897;BME280;67092;64.282;21.056;2023-02-28T08:24:54;101767.38;;;20.55;20.34
77897;BME280;67092;64.282;21.056;2023-02-28T08:27:20;101764.65;;;20.30;20.68
77897;BME280;67092;64.282;21.056;2023-02-28T08:29:46;101758.57;;;20.31;20.58
77897;BME280;67092;64.282;21.056;2023-02-28T08:32:11;101776.06;;;20.24;20.55
77897;BME280;67092;64.282;21.056;2023-02-28T08:34:39;101778.56;;;20.34;20.44
77897;BME280;67092;64.282;21.056;2023-02-28T08:37:02;101776.22;;;20.43;20.49
77897;BME280;67092;64.282;21.056;2023-02-28T08:39:28;101778.01;;;20.08;20.49
77897;BME280;67092;64.282;21.056;2023-02-28T08:41:54;101776.53;;;20.06;20.55
77897;BME280;67092;64.282;21.056;2023-02-28T08:44:19;101777.74;;;19.70;20.83
77897;BME280;67092;64.282;21.056;2023-02-28T08:46:45;101783.53;;;20.58;20.15
77897;BME280;67092;64.282;21.056;2023-02-28T08:49:11;101783.61;;;20.19;20.43
77897;BME280;67092;64.282;21.056;2023-02-28T08:51:36;101770.82;;;20.66;19.99
77897;BME280;67092;64.282;21.056;2023-02-28T08:54:02;101768.52;;;19.83;20.83
77897;BME280;67092;64.282;21.056;2023-02-28T08:56:28;101773.97;;;20.21;20.61
77897;BME280;67092;64.282;21.056;2023-02-28T08:58:56;101777.67;;;20.85;19.88
77897;BME280;67092;64.282;21.056;2023-02-28T09:01:21;101773.71;;;20.82;20.08
77897;BME280;67092;64.282;21.056;2023-02-28T09:03:45;101769.17;;;20.70;20.02
77897;BME280;67092;64.282;21.056;2023-02-28T09:06:10;101763.87;;;20.61;20.19
77897;BME280;67092;64.282;21.056;2023-02-28T09:08:36;101766.01;;;20.86;20.00
77897;BME280;67092;64.282;21.056;2023-02-28T09:11:02;101769.11;;;19.97;20.45
77897;BME280;67092;64.282;21.056;2023-02-28T09:13:27;101771.71;;;19.80;20.53
77897;BME280;67092;64.282;21.056;2023-02-28T09:15:53;101769.60;;;19.79;20.56
77897;BME280;67092;64.282;21.056;2023-02-28T09:18:18;101775.81;;;20.46;20.27
77897;BME280;67092;64.282;21.056;2023-02-28T09:20:44;101774.90;;;20.35;20.26
77897;BME280;67092;64.282;21.056;2023-02-28T09:23:10;101771.66;;;20.65;19.83
77897;BME280;67092;64.282;21.056;2023-02-28T09:25:35;101764.04;;;19.74;20.43
77897;BME280;67092;64.282;21.056;2023-02-28T09:28:00;101768.54;;;20.32;20.14
77897;BME280;67092;64.282;21.056;2023-02-28T09:30:26;101772.08;;;20.06;20.42
77897;BME280;67092;64.282;21.056;2023-02-28T09:32:52;101776.56;;;19.67;20.63
77897;BME280;67092;64.282;21.056;2023-02-28T09:35:18;101773.40;;;20.01;20.46
77897;BME280;67092;64.282;21.056;2023-02-28T09:37:43;101768.48;;;20.09;20.28
77897;BME280;67092;64.282;21.056;2023-02-28T09:40:10;101766.38;;;19.57;20.51
77897;BME280;67092;64.282;21.056;2023-02-28T09:42:34;101767.59;;;20.28;20.15
77897;BME280;67092;64.282;21.056;2023-02-28T09:45:03;101773.54;;;20.13;20.35
77897;BME280;67092;64.282;21.056;2023-02-28T09:47:31;101775.59;;;19.76;20.36
77897;BME280;67092;64.282;21.056;2023-02-28T09:49:51;101773.04;;;19.72;20.37
77897;BME280;67092;64.282;21.056;2023-02-28T09:52:19;101773.33;;;20.30;20.10
77897;BME280;67092;64.282;21.056;2023-02-28T09:54:42;101775.52;;;20.52;19.72
77897;BME280;67092;64.282;21.056;2023-02-28T09:57:14;101773.07;;;20.15;19.98
77897;BME280;67092;64.282;21.056;2023-02-28T09:59:43;101774.46;;;19.68;20.29
77897;BME280;67092;64.282;21.056;2023-02-28T10:02:08;101787.95;;;20.62;19.66
77897;BME280;67092;64.282;21.056;2023-02-28T10:04:37;101776.82;;;20.12;19.98
77897;BME280;67092;64.282;21.056;2023-02-28T10:06:51;101777.05;;;20.11;20.06
77897;BME280;67092;64.282;21.056;2023-02-28T10:09:18;101782.61;;;19.98;19.92
77897;BME280;67092;64.282;21.056;2023-02-28T10:11:44;101787.29;;;20.20;20.04
77897;BME280;67092;64.282;21.056;2023-02-28T10:14:14;101778.50;;;20.03;19.97
77897;BME280;67092;64.282;21.056;2023-02-28T10:16:36;101783.48;;;19.97;20.02
77897;BME280;67092;64.282;21.056;2023-02-28T10:19:03;101774.45;;;20.36;19.89
77897;BME280;67092;64.282;21.056;2023-02-28T10:21:29;101784.83;;;19.80;19.98
77897;BME280;67092;64.282;21.056;2023-02-28T10:23:56;101783.00;;;20.32;19.86
77897;BME280;67092;64.282;21.056;2023-02-28T10:26:17;101789.60;;;19.79;19.96
77897;BME280;67092;64.282;21.056;2023-02-28T10:28:42;101794.18;;;20.00;19.93
77897;BME280;67092;64.282;21.056;2023-02-28T10:31:11;101795.88;;;20.22;19.90
77897;BME280;67092;64.282;21.056;2023-02-28T10:33:34;101798.59;;;20.60;19.61
77897;BME280;67092;64.282;21.056;2023-02-28T10:35:58;101803.93;;;19.75;20.01
77897;BME280;67092;64.282;21.056;2023-02-28T10:38:26;101788.91;;;20.00;20.02
77897;BME280;67092;64.282;21.056;2023-02-28T10:40:50;101785.37;;;21.07;19.20
77897;BME280;67092;64.282;21.056;2023-02-28T10:43:23;101773.61;;;20.26;19.71
77897;BME280;67092;64.282;21.056;2023-02-28T10:50:37;101790.09;;;20.44;19.73
77897;BME280;67092;64.282;21.056;2023-02-28T10:53:07;101780.59;;;20.32;19.58
77897;BME280;67092;64.282;21.056;2023-02-28T10:55:26;101788.73;;;20.53;19.53
77897;BME280;67092;64.282;21.056;2023-02-28T10:57:49;101789.10;;;20.26;19.53
77897;BME280;67092;64.282;21.056;2023-02-28T11:00:17;101787.39;;;19.62;19.92
77897;BME280;67092;64.282;21.056;2023-02-28T11:02:40;101785.07;;;20.36;19.45
77897;BME280;67092;64.282;21.056;2023-02-28T11:07:31;101776.27;;;20.12;19.63
77897;BME280;67092;64.282;21.056;2023-02-28T11:09:58;101785.57;;;20.59;19.24
77897;BME280;67092;64.282;21.056;2023-02-28T11:12:25;101782.65;;;20.52;19.21
77897;BME280;67092;64.282;21.056;2023-02-28T11:14:50;101775.67;;;19.72;19.71
77897;BME280;67092;64.282;21.056;2023-02-28T11:17:18;101779.80;;;20.51;19.20
77897;BME280;67092;64.282;21.056;2023-02-28T11:19:45;101782.11;;;20.69;19.17
77897;BME280;67092;64.282;21.056;2023-02-28T11:22:05;101791.91;;;20.27;19.17
77897;BME280;67092;64.282;21.056;2023-02-28T11:24:33;101788.74;;;20.69;19.20
77897;BME280;67092;64.282;21.056;2023-02-28T11:26:57;101798.02;;;20.21;19.45
77897;BME280;67092;64.282;21.056;2023-02-28T11:29:23;101792.24;;;20.22;19.44
77897;BME280;67092;64.282;21.056;2023-02-28T11:32:04;101795.76;;;20.21;19.26
77897;BME280;67092;64.282;21.056;2023-02-28T11:34:22;101803.06;;;19.90;19.51
77897;BME280;67092;64.282;21.056;2023-02-28T11:36:39;101789.54;;;20.15;19.31
77897;BME280;67092;64.282;21.056;2023-02-28T11:39:10;101790.70;;;19.87;19.66
77897;BME280;67092;64.282;21.056;2023-02-28T11:41:43;101787.52;;;20.26;19.66
77897;BME280;67092;64.282;21.056;2023-02-28T11:44:07;101800.76;;;20.63;19.17
77897;BME280;67092;64.282;21.056;2023-02-28T11:46:27;101800.66;;;20.34;19.15
77897;BME280;67092;64.282;21.056;2023-02-28T11:48:54;101802.96;;;20.65;19.08
77897;BME280;67092;64.282;21.056;2023-02-28T11:51:18;101813.09;;;19.94;19.57
77897;BME280;67092;64.282;21.056;2023-02-28T11:53:50;101816.15;;;20.40;19.25
77897;BME280;67092;64.282;21.056;2023-02-28T11:56:08;101817.37;;;19.98;19.50
77897;BME280;67092;64.282;21.056;2023-02-28T11:58:41;101818.20;;;19.99;19.68
77897;BME280;67092;64.282;21.056;2023-02-28T12:01:07;101803.06;;;20.27;19.26
77897;BME280;67092;64.282;21.056;2023-02-28T12:03:27;101799.35;;;20.46;19.33
77897;BME280;67092;64.282;21.056;2023-02-28T12:05:50;101794.30;;;19.94;19.38
77897;BME280;67092;64.282;21.056;2023-02-28T12:08:25;101791.46;;;20.22;19.28
77897;BME280;67092;64.282;21.056;2023-02-28T12:10:44;101784.79;;;19.90;19.38
77897;BME280;67092;64.282;21.056;2023-02-28T12:13:15;101784.63;;;20.13;19.08
77897;BME280;67092;64.282;21.056;2023-02-28T12:15:41;101781.57;;;20.46;19.05
77897;BME280;67092;64.282;21.056;2023-02-28T12:18:03;101765.80;;;20.55;18.84
77897;BME280;67092;64.282;21.056;2023-02-28T12:20:27;101763.72;;;20.26;19.36
77897;BME280;67092;64.282;21.056;2023-02-28T12:22:53;101763.90;;;20.04;19.38
77897;BME280;67092;64.282;21.056;2023-02-28T12:25:24;101767.20;;;20.04;19.22
77897;BME280;67092;64.282;21.056;2023-02-28T12:27:40;101769.97;;;19.51;19.52
77897;BME280;67092;64.282;21.056;2023-02-28T12:30:06;101760.58;;;19.85;19.56
77897;BME280;67092;64.282;21.056;2023-02-28T12:32:32;101753.78;;;19.82;19.50
77897;BME280;67092;64.282;21.056;2023-02-28T12:34:57;101760.27;;;19.30;19.65
77897;BME280;67092;64.282;21.056;2023-02-28T12:37:24;101759.73;;;20.41;18.90
77897;BME280;67092;64.282;21.056;2023-02-28T12:39:47;101753.29;;;19.56;19.66